Time;durP1;ratioP1;P1;durP2;ratioP2;P2;SDS_P1;SDS_P2;PMS_P1;PMS_P2;Temp;Humidity;BMP_temperature;BMP_pressure;BME280_temperature;BME280_humidity;BME280_pressure;Samples;Min_cycle;Max_cycle;Signal;HPM_P1;HPM_P2
2024/01/25 00:01:30;;;;;;;19.03;8.70;;;;;;;;;;5095672;28;20198;-86
2024/01/25 00:04:00;;;;;;;20.27;9.20;;;;;;;;;;5096022;28;20230;-86
2024/01/25 00:06:28;;;;;;;21.30;10.07;;;;;;;;;;5096046;28;20204;-86
2024/01/25 00:08:56;;;;;;;20.57;9.07;;;;;;;;;;5095863;28;20222;-87
2024/01/25 00:11:24;;;;;;;10.33;5.43;;;;;;;;;;5096201;28;20545;-86
2024/01/25 00:13:53;;;;;;;10.93;6.13;;;;;;;;;;5095736;28;20637;-87
2024/01/25 00:16:20;;;;;;;18.27;7.70;;;;;;;;;;5095671;28;20234;-85
2024/01/25 00:18:50;;;;;;;14.03;6.37;;;;;;;;;;5096924;28;20214;-85
2024/01/25 00:21:18;;;;;;;9.83;5.33;;;;;;;;;;5096357;28;20796;-85
2024/01/25 00:23:47;;;;;;;13.50;5.57;;;;;;;;;;5094950;28;20237;-86
2024/01/25 00:26:15;;;;;;;5.00;4.60;;;;;;;;;;5095412;28;20198;-86
2024/01/25 00:28:43;;;;;;;8.20;4.70;;;;;;;;;;5096388;28;20202;-86
2024/01/25 00:31:12;;;;;;;13.80;5.13;;;;;;;;;;5099301;28;20316;-86
2024/01/25 00:33:40;;;;;;;9.67;4.70;;;;;;;;;;5099982;28;20194;-87
2024/01/25 00:36:13;;;;;;;4.60;4.20;;;;;;;;;;5103214;28;20209;-86
2024/01/25 00:38:43;;;;;;;6.90;3.87;;;;;;;;;;5100393;28;20205;-85
2024/01/25 00:41:12;;;;;;;15.50;4.37;;;;;;;;;;5099472;28;20220;-86
2024/01/25 00:43:42;;;;;;;11.37;5.90;;;;;;;;;;5098393;28;20286;-85
2024/01/25 00:46:11;;;;;;;7.73;4.97;;;;;;;;;;5100226;28;20194;-86
2024/01/25 00:48:40;;;;;;;10.70;5.83;;;;;;;;;;5102320;28;20201;-86
2024/01/25 00:51:10;;;;;;;12.13;4.67;;;;;;;;;;5101767;28;20201;-86
2024/01/25 00:53:40;;;;;;;5.63;4.43;;;;;;;;;;5104443;28;20228;-86
2024/01/25 00:56:09;;;;;;;9.20;3.53;;;;;;;;;;5101888;28;20194;-86
2024/01/25 00:58:37;;;;;;;6.33;3.63;;;;;;;;;;5104698;28;20210;-87
2024/01/25 01:01:05;;;;;;;10.70;5.10;;;;;;;;;;5105127;28;20204;-86
2024/01/25 01:03:33;;;;;;;11.47;5.07;;;;;;;;;;5108267;28;20197;-83
2024/01/25 01:06:00;;;;;;;7.93;4.27;;;;;;;;;;5110218;28;20714;-85
2024/01/25 01:08:28;;;;;;;13.40;5.40;;;;;;;;;;5107557;28;20226;-85
2024/01/25 01:11:00;;;;;;;6.73;4.40;;;;;;;;;;5111492;28;20202;-84
2024/01/25 01:13:27;;;;;;;5.70;4.53;;;;;;;;;;5110433;28;20241;-84
2024/01/25 01:15:54;;;;;;;8.73;4.83;;;;;;;;;;5111265;28;20224;-83
2024/01/25 01:18:21;;;;;;;5.87;4.93;;;;;;;;;;5110992;28;20193;-86
2024/01/25 01:20:49;;;;;;;9.87;4.83;;;;;;;;;;5111965;28;20198;-85
2024/01/25 01:23:16;;;;;;;7.90;4.83;;;;;;;;;;5111615;28;20229;-85
2024/01/25 01:25:43;;;;;;;5.40;3.60;;;;;;;;;;5107458;28;20249;-85
2024/01/25 01:28:13;;;;;;;9.03;4.97;;;;;;;;;;5109264;28;20207;-85
2024/01/25 01:30:42;;;;;;;10.03;4.97;;;;;;;;;;5110795;28;20186;-83
2024/01/25 01:33:13;;;;;;;8.20;5.23;;;;;;;;;;5112066;28;20267;-82
2024/01/25 01:35:41;;;;;;;7.70;5.53;;;;;;;;;;5111734;28;20208;-83
2024/01/25 01:38:09;;;;;;;9.67;5.00;;;;;;;;;;5111414;28;20174;-84
2024/01/25 01:40:36;;;;;;;8.07;5.40;;;;;;;;;;5111680;28;20201;-83
2024/01/25 01:43:07;;;;;;;6.27;3.57;;;;;;;;;;5113277;28;20210;-85
2024/01/25 01:45:36;;;;;;;6.63;2.23;;;;;;;;;;5112857;28;20295;-85
2024/01/25 01:48:03;;;;;;;0.63;0.63;;;;;;;;;;5112828;28;20209;-85
2024/01/25 01:50:30;;;;;;;0.27;0.27;;;;;;;;;;5114834;28;20198;-85
2024/01/25 01:53:02;;;;;;;0.43;0.43;;;;;;;;;;5115163;28;20255;-86
2024/01/25 01:55:29;;;;;;;0.40;0.40;;;;;;;;;;5115134;28;20201;-86
2024/01/25 01:57:59;;;;;;;0.40;0.40;;;;;;;;;;5111978;28;20308;-86
2024/01/25 02:00:26;;;;;;;0.20;0.20;;;;;;;;;;5110160;28;20322;-86
2024/01/25 02:02:57;;;;;;;0.33;0.33;;;;;;;;;;5113363;28;20235;-86
2024/01/25 02:05:25;;;;;;;0.23;0.23;;;;;;;;;;5114429;28;20218;-85
2024/01/25 02:07:54;;;;;;;0.50;0.50;;;;;;;;;;5112279;28;20222;-86
2024/01/25 02:10:22;;;;;;;4.23;0.30;;;;;;;;;;5112541;28;20197;-86
2024/01/25 02:12:49;;;;;;;0.20;0.20;;;;;;;;;;5114307;28;20170;-87
2024/01/25 02:15:20;;;;;;;0.20;0.20;;;;;;;;;;5112584;28;20194;-86
2024/01/25 02:17:47;;;;;;;0.67;0.30;;;;;;;;;;5115156;28;20188;-86
2024/01/25 02:20:19;;;;;;;0.17;0.17;;;;;;;;;;5114180;28;20224;-86
2024/01/25 02:22:48;;;;;;;0.23;0.23;;;;;;;;;;5114874;28;20233;-86
2024/01/25 02:25:15;;;;;;;0.63;0.20;;;;;;;;;;5115363;28;20260;-85
2024/01/25 02:27:46;;;;;;;0.10;0.10;;;;;;;;;;5115168;28;20178;-86
2024/01/25 02:30:14;;;;;;;0.30;0.30;;;;;;;;;;5115599;28;20190;-84
2024/01/25 02:32:44;;;;;;;0.30;0.30;;;;;;;;;;5114705;28;20287;-86
2024/01/25 02:35:12;;;;;;;0.10;0.10;;;;;;;;;;5113778;28;20177;-86
2024/01/25 02:37:39;;;;;;;0.30;0.30;;;;;;;;;;5114438;28;20216;-86
2024/01/25 02:40:11;;;;;;;0.67;0.40;;;;;;;;;;5114108;28;20250;-86
2024/01/25 02:42:40;;;;;;;0.20;0.20;;;;;;;;;;5113097;28;20227;-85
2024/01/25 02:45:09;;;;;;;0.20;0.20;;;;;;;;;;5116469;28;20197;-84
2024/01/25 02:47:37;;;;;;;0.67;0.50;;;;;;;;;;5118237;28;20261;-85
2024/01/25 02:50:04;;;;;;;0.30;0.30;;;;;;;;;;5118533;28;20249;-85
2024/01/25 02:52:32;;;;;;;0.40;0.37;;;;;;;;;;5118481;28;20186;-85
2024/01/25 02:55:00;;;;;;;0.10;0.10;;;;;;;;;;5118655;28;20205;-86
2024/01/25 02:57:34;;;;;;;0.40;0.40;;;;;;;;;;5118729;28;20209;-86
2024/01/25 03:00:01;;;;;;;0.30;0.30;;;;;;;;;;5117527;28;20194;-87
2024/01/25 03:02:29;;;;;;;0.20;0.20;;;;;;;;;;5116303;28;20186;-87
2024/01/25 03:04:57;;;;;;;1.90;0.37;;;;;;;;;;5114988;28;20320;-86
2024/01/25 03:07:24;;;;;;;0.70;0.27;;;;;;;;;;5114027;28;20209;-84
2024/01/25 03:09:51;;;;;;;0.30;0.20;;;;;;;;;;5115838;28;20216;-85
2024/01/25 03:12:17;;;;;;;0.10;0.10;;;;;;;;;;5117284;28;20304;-84
2024/01/25 03:14:47;;;;;;;0.10;0.10;;;;;;;;;;5117507;28;20273;-84
2024/01/25 03:17:15;;;;;;;0.17;0.17;;;;;;;;;;5117070;28;20190;-87
2024/01/25 03:19:43;;;;;;;0.30;0.30;;;;;;;;;;5114584;28;20202;-86
2024/01/25 03:22:11;;;;;;;0.47;0.47;;;;;;;;;;5113479;28;20237;-83
2024/01/25 03:24:38;;;;;;;0.00;0.00;;;;;;;;;;5112941;28;20194;-85
2024/01/25 03:27:12;;;;;;;0.73;0.73;;;;;;;;;;5113590;28;20250;-84
2024/01/25 03:29:41;;;;;;;0.10;0.10;;;;;;;;;;5113947;28;20210;-85
2024/01/25 03:32:10;;;;;;;0.23;0.23;;;;;;;;;;5113203;28;20243;-85
2024/01/25 03:34:37;;;;;;;0.27;0.20;;;;;;;;;;5115551;28;20194;-84
2024/01/25 03:37:05;;;;;;;0.43;0.43;;;;;;;;;;5115524;28;20201;-84
2024/01/25 03:39:33;;;;;;;1.60;0.37;;;;;;;;;;5114304;28;20194;-84
2024/01/25 03:42:01;;;;;;;0.63;0.23;;;;;;;;;;5114803;28;20232;-84
2024/01/25 03:44:29;;;;;;;0.30;0.20;;;;;;;;;;5114618;28;20194;-84
2024/01/25 03:46:56;;;;;;;0.20;0.20;;;;;;;;;;5115137;28;20278;-86
2024/01/25 03:49:25;;;;;;;0.07;0.07;;;;;;;;;;5117768;28;20182;-84
2024/01/25 03:51:52;;;;;;;0.50;0.50;;;;;;;;;;5116844;28;20245;-84
2024/01/25 03:54:22;;;;;;;0.20;0.20;;;;;;;;;;5114643;28;20202;-85
2024/01/25 03:56:51;;;;;;;0.07;0.07;;;;;;;;;;5115307;28;20194;-85
2024/01/25 03:59:17;;;;;;;0.27;0.27;;;;;;;;;;5115911;28;20200;-84
2024/01/25 04:01:49;;;;;;;0.10;0.10;;;;;;;;;;5114318;28;20262;-84
2024/01/25 04:04:17;;;;;;;0.17;0.17;;;;;;;;;;5116197;28;20219;-85
2024/01/25 04:06:47;;;;;;;0.20;0.20;;;;;;;;;;5114364;28;20229;-86
2024/01/25 04:09:15;;;;;;;0.20;0.20;;;;;;;;;;5112398;28;20282;-85
2024/01/25 04:11:43;;;;;;;0.33;0.20;;;;;;;;;;5104362;28;20266;-86
2024/01/25 04:14:12;;;;;;;0.10;0.10;;;;;;;;;;5100274;28;20190;-85
2024/01/25 04:16:41;;;;;;;0.37;0.13;;;;;;;;;;5099481;28;20602;-86
2024/01/25 04:19:12;;;;;;;1.37;0.27;;;;;;;;;;5099398;28;20198;-85
2024/01/25 04:21:40;;;;;;;0.20;0.20;;;;;;;;;;5098306;28;20204;-86
2024/01/25 04:24:10;;;;;;;0.30;0.30;;;;;;;;;;5102325;28;20224;-86
2024/01/25 04:26:40;;;;;;;0.10;0.10;;;;;;;;;;5102914;28;20690;-85
2024/01/25 04:29:08;;;;;;;0.43;0.43;;;;;;;;;;5112616;28;20192;-84
2024/01/25 04:31:44;;;;;;;0.40;0.40;;;;;;;;;;5110294;28;20212;-83
2024/01/25 04:34:14;;;;;;;1.53;1.53;;;;;;;;;;5100616;28;20234;-86
2024/01/25 04:36:42;;;;;;;1.07;1.03;;;;;;;;;;5096894;28;20376;-86
2024/01/25 04:39:11;;;;;;;0.40;0.40;;;;;;;;;;5099936;28;20205;-86
2024/01/25 04:41:39;;;;;;;2.20;0.50;;;;;;;;;;5097066;28;20643;-87
2024/01/25 04:44:06;;;;;;;0.47;0.47;;;;;;;;;;5097884;28;20224;-86
2024/01/25 04:46:36;;;;;;;0.50;0.50;;;;;;;;;;5096759;28;20251;-86
2024/01/25 04:49:04;;;;;;;0.23;0.23;;;;;;;;;;5103931;28;20174;-84
2024/01/25 04:51:32;;;;;;;0.60;0.60;;;;;;;;;;5102044;28;20201;-86
2024/01/25 04:54:00;;;;;;;1.07;1.07;;;;;;;;;;5096460;28;20198;-87
2024/01/25 04:56:32;;;;;;;0.63;0.63;;;;;;;;;;5095490;28;20727;-86
2024/01/25 04:58:59;;;;;;;1.27;0.93;;;;;;;;;;5095404;28;20194;-86
2024/01/25 05:01:27;;;;;;;0.20;0.20;;;;;;;;;;5087748;28;20240;-86
2024/01/25 05:03:55;;;;;;;0.70;0.70;;;;;;;;;;5092733;28;20612;-86
2024/01/25 05:06:24;;;;;;;6.63;0.90;;;;;;;;;;5097046;28;20259;-86
2024/01/25 05:08:51;;;;;;;0.43;0.43;;;;;;;;;;5096194;28;20217;-86
2024/01/25 05:11:19;;;;;;;0.60;0.13;;;;;;;;;;5109098;28;20223;-86
2024/01/25 05:13:48;;;;;;;1.27;1.17;;;;;;;;;;5114838;28;20239;-85
2024/01/25 05:16:16;;;;;;;0.60;0.60;;;;;;;;;;5097524;28;20588;-86
2024/01/25 05:18:45;;;;;;;0.50;0.17;;;;;;;;;;5095690;28;20194;-86
2024/01/25 05:21:21;;;;;;;0.80;0.80;;;;;;;;;;5096090;28;20198;-86
2024/01/25 05:23:49;;;;;;;1.00;1.00;;;;;;;;;;5094285;28;20233;-86
2024/01/25 05:26:29;;;;;;;1.47;0.70;;;;;;;;;;5097597;28;20222;-85
2024/01/25 05:29:04;;;;;;;1.83;0.83;;;;;;;;;;5096517;28;20210;-86
2024/01/25 05:31:35;;;;;;;1.53;1.43;;;;;;;;;;5095852;28;20228;-86
2024/01/25 05:34:04;;;;;;;3.37;1.47;;;;;;;;;;5095393;28;20187;-86
2024/01/25 05:36:33;;;;;;;1.43;1.27;;;;;;;;;;5095266;28;20210;-86
2024/01/25 05:39:06;;;;;;;1.90;0.97;;;;;;;;;;5093884;28;20202;-86
2024/01/25 05:41:33;;;;;;;0.60;0.60;;;;;;;;;;5092285;28;20297;-85
2024/01/25 05:44:03;;;;;;;1.70;1.40;;;;;;;;;;5098433;28;20205;-86
2024/01/25 05:46:31;;;;;;;0.80;0.73;;;;;;;;;;5104677;28;20256;-86
2024/01/25 05:48:58;;;;;;;0.40;0.40;;;;;;;;;;5107411;28;20193;-88
2024/01/25 05:51:29;;;;;;;0.53;0.53;;;;;;;;;;5103115;28;20247;-86
2024/01/25 05:53:57;;;;;;;0.47;0.47;;;;;;;;;;5094232;28;20251;-87
2024/01/25 05:56:26;;;;;;;1.33;1.17;;;;;;;;;;5093964;28;20229;-87
2024/01/25 05:58:55;;;;;;;0.60;0.60;;;;;;;;;;5094692;28;20190;-86
2024/01/25 06:01:25;;;;;;;0.53;0.47;;;;;;;;;;5093643;28;20202;-86
2024/01/25 06:03:55;;;;;;;1.53;1.47;;;;;;;;;;5093595;28;20259;-86
2024/01/25 06:06:24;;;;;;;1.70;1.60;;;;;;;;;;5094063;28;20227;-86
2024/01/25 06:08:52;;;;;;;1.47;0.83;;;;;;;;;;5093734;28;20306;-86
2024/01/25 06:11:21;;;;;;;0.47;0.47;;;;;;;;;;5093575;28;20263;-86
2024/01/25 06:13:50;;;;;;;0.70;0.70;;;;;;;;;;5093907;28;20225;-85
2024/01/25 06:16:23;;;;;;;0.40;0.40;;;;;;;;;;5092481;28;20746;-87
2024/01/25 06:18:54;;;;;;;0.60;0.60;;;;;;;;;;5093158;28;20667;-86
2024/01/25 06:21:23;;;;;;;0.53;0.50;;;;;;;;;;5094614;28;20644;-85
2024/01/25 06:23:51;;;;;;;0.60;0.60;;;;;;;;;;5092880;28;20709;-87
2024/01/25 06:26:19;;;;;;;1.00;1.00;;;;;;;;;;5093222;28;20225;-88
2024/01/25 06:28:47;;;;;;;1.40;0.93;;;;;;;;;;5093718;28;20628;-86
2024/01/25 06:31:15;;;;;;;0.60;0.60;;;;;;;;;;5093879;28;20194;-87
2024/01/25 06:33:46;;;;;;;5.03;1.90;;;;;;;;;;5093224;28;20273;-86
2024/01/25 06:36:19;;;;;;;1.33;0.90;;;;;;;;;;5094320;28;20247;-86
2024/01/25 06:38:49;;;;;;;2.60;1.00;;;;;;;;;;5092750;28;20201;-87
2024/01/25 06:41:18;;;;;;;0.60;0.60;;;;;;;;;;5094905;28;20206;-87
2024/01/25 06:44:01;;;;;;;0.50;0.50;;;;;;;;;;5095430;28;20284;-87
2024/01/25 06:46:30;;;;;;;2.63;1.03;;;;;;;;;;5084244;28;20267;-87
2024/01/25 06:48:58;;;;;;;2.47;2.27;;;;;;;;;;5073395;28;20271;-86
2024/01/25 06:51:29;;;;;;;4.37;0.83;;;;;;;;;;5072523;28;20243;-86
2024/01/25 06:53:56;;;;;;;1.03;0.80;;;;;;;;;;5072329;28;20263;-86
2024/01/25 06:56:23;;;;;;;0.97;0.97;;;;;;;;;;5087879;28;20209;-85
2024/01/25 06:58:51;;;;;;;4.57;1.00;;;;;;;;;;5093748;28;20251;-85
2024/01/25 07:01:21;;;;;;;2.30;1.70;;;;;;;;;;5093451;28;20205;-86
2024/01/25 07:03:50;;;;;;;0.80;0.60;;;;;;;;;;5088746;28;20201;-86
2024/01/25 07:06:21;;;;;;;0.90;0.90;;;;;;;;;;5084398;28;20225;-85
2024/01/25 07:08:50;;;;;;;1.00;1.00;;;;;;;;;;5092248;28;20389;-85
2024/01/25 07:11:21;;;;;;;2.13;0.90;;;;;;;;;;5087912;28;20222;-85
2024/01/25 07:13:48;;;;;;;3.23;0.93;;;;;;;;;;5085145;28;20225;-86
2024/01/25 07:16:16;;;;;;;4.50;1.70;;;;;;;;;;5092656;28;20228;-87
2024/01/25 07:18:47;;;;;;;7.73;1.77;;;;;;;;;;5076098;28;20233;-87
2024/01/25 07:21:17;;;;;;;13.73;3.23;;;;;;;;;;5102645;28;20222;-86
2024/01/25 07:23:48;;;;;;;0.87;0.83;;;;;;;;;;5122907;28;20743;-87
2024/01/25 07:26:22;;;;;;;3.50;1.60;;;;;;;;;;5116771;28;20229;-87
2024/01/25 07:28:49;;;;;;;1.73;1.57;;;;;;;;;;5115123;28;20284;-87
2024/01/25 07:31:22;;;;;;;1.00;1.00;;;;;;;;;;5117609;28;20190;-86
2024/01/25 07:33:51;;;;;;;2.63;1.70;;;;;;;;;;5119129;28;20658;-86
2024/01/25 07:36:20;;;;;;;1.30;0.87;;;;;;;;;;5119106;28;20197;-86
2024/01/25 07:38:51;;;;;;;1.90;0.90;;;;;;;;;;5094729;28;20299;-87
2024/01/25 07:41:31;;;;;;;0.93;0.93;;;;;;;;;;5090383;28;20310;-87
2024/01/25 07:43:59;;;;;;;1.20;1.07;;;;;;;;;;5115315;28;20293;-87
2024/01/25 07:46:28;;;;;;;2.80;1.73;;;;;;;;;;5112203;28;20259;-86
2024/01/25 07:48:58;;;;;;;2.13;1.33;;;;;;;;;;5115721;28;20249;-87
2024/01/25 07:51:31;;;;;;;5.80;1.33;;;;;;;;;;5114302;28;20206;-86
2024/01/25 07:54:01;;;;;;;2.13;1.80;;;;;;;;;;5096606;28;20225;-87
2024/01/25 07:56:30;;;;;;;4.37;2.23;;;;;;;;;;5088285;28;20221;-86
2024/01/25 07:58:59;;;;;;;9.27;1.43;;;;;;;;;;5104828;28;20225;-85
2024/01/25 08:01:28;;;;;;;2.47;1.13;;;;;;;;;;5113258;28;20274;-85
2024/01/25 08:03:58;;;;;;;2.87;1.40;;;;;;;;;;5111649;28;20245;-86
2024/01/25 08:06:26;;;;;;;1.27;0.97;;;;;;;;;;5107821;28;20262;-86
2024/01/25 08:08:53;;;;;;;3.30;1.27;;;;;;;;;;5116449;28;20222;-86
2024/01/25 08:11:23;;;;;;;1.70;1.60;;;;;;;;;;5116525;28;20213;-85
2024/01/25 08:13:53;;;;;;;2.57;1.67;;;;;;;;;;5098303;28;20226;-85
2024/01/25 08:16:21;;;;;;;0.87;0.70;;;;;;;;;;5095813;28;20242;-85
2024/01/25 08:18:53;;;;;;;0.73;0.60;;;;;;;;;;5095904;28;20233;-86
2024/01/25 08:21:27;;;;;;;5.03;0.90;;;;;;;;;;5085384;28;20218;-87
2024/01/25 08:23:57;;;;;;;1.00;1.00;;;;;;;;;;5076321;28;20244;-85
2024/01/25 08:26:26;;;;;;;0.70;0.70;;;;;;;;;;5076500;28;20230;-85
2024/01/25 08:28:56;;;;;;;0.60;0.60;;;;;;;;;;5076480;28;20195;-87
2024/01/25 08:31:24;;;;;;;1.10;0.70;;;;;;;;;;5076420;28;20219;-89
2024/01/25 08:33:52;;;;;;;2.53;1.67;;;;;;;;;;5076421;28;20310;-86
2024/01/25 08:36:19;;;;;;;1.37;1.07;;;;;;;;;;5075444;28;20268;-88
2024/01/25 08:38:50;;;;;;;1.40;0.80;;;;;;;;;;5074481;28;20233;-86
2024/01/25 08:41:17;;;;;;;4.60;2.83;;;;;;;;;;5075788;28;20269;-85
2024/01/25 08:43:48;;;;;;;0.70;0.70;;;;;;;;;;5075604;28;20463;-86
2024/01/25 08:46:17;;;;;;;6.27;3.60;;;;;;;;;;5075441;28;20210;-88
2024/01/25 08:48:46;;;;;;;1.90;1.70;;;;;;;;;;5076370;28;20205;-86
2024/01/25 08:51:21;;;;;;;4.40;2.37;;;;;;;;;;5075837;28;20281;-87
2024/01/25 08:53:51;;;;;;;3.53;1.20;;;;;;;;;;5075041;28;20204;-86
2024/01/25 08:56:20;;;;;;;4.07;1.60;;;;;;;;;;5075669;28;20203;-86
2024/01/25 08:58:52;;;;;;;2.23;2.03;;;;;;;;;;5074247;28;20195;-86
2024/01/25 09:01:23;;;;;;;2.93;1.70;;;;;;;;;;5073908;28;20648;-87
2024/01/25 09:03:51;;;;;;;0.50;0.50;;;;;;;;;;5073317;28;20203;-86
2024/01/25 09:06:21;;;;;;;2.27;1.00;;;;;;;;;;5072784;28;20198;-85
2024/01/25 09:08:49;;;;;;;2.33;1.50;;;;;;;;;;5073604;28;20215;-86
2024/01/25 09:11:17;;;;;;;6.77;1.80;;;;;;;;;;5073929;28;20213;-86
2024/01/25 09:13:47;;;;;;;12.50;1.70;;;;;;;;;;5077815;28;20211;-86
2024/01/25 09:16:14;;;;;;;2.27;1.27;;;;;;;;;;5093368;28;20198;-85
2024/01/25 09:18:45;;;;;;;4.30;1.13;;;;;;;;;;5092336;28;20823;-85
2024/01/25 09:21:14;;;;;;;1.40;1.03;;;;;;;;;;5083730;28;20658;-86
2024/01/25 09:23:41;;;;;;;2.30;1.87;;;;;;;;;;5084777;28;20226;-86
2024/01/25 09:26:10;;;;;;;2.87;2.47;;;;;;;;;;5077564;28;20210;-86
2024/01/25 09:28:45;;;;;;;1.80;1.70;;;;;;;;;;5074783;28;20244;-85
2024/01/25 09:31:12;;;;;;;1.30;1.20;;;;;;;;;;5074993;28;20198;-87
2024/01/25 09:33:49;;;;;;;6.63;2.53;;;;;;;;;;5074639;28;20248;-85
2024/01/25 09:36:19;;;;;;;4.00;1.50;;;;;;;;;;5074360;28;20578;-86
2024/01/25 09:38:46;;;;;;;2.90;1.40;;;;;;;;;;5074962;28;20576;-86
2024/01/25 09:41:13;;;;;;;1.20;1.20;;;;;;;;;;5075037;28;20202;-85
2024/01/25 09:43:42;;;;;;;2.80;1.73;;;;;;;;;;5072877;28;20247;-85
2024/01/25 09:46:18;;;;;;;1.53;1.43;;;;;;;;;;5074390;28;20183;-86
2024/01/25 09:48:48;;;;;;;1.60;1.20;;;;;;;;;;5074503;28;20291;-87
2024/01/25 09:51:16;;;;;;;1.50;1.37;;;;;;;;;;5074349;28;20226;-87
2024/01/25 09:53:45;;;;;;;1.43;1.30;;;;;;;;;;5073421;28;20662;-86
2024/01/25 09:56:14;;;;;;;3.13;1.50;;;;;;;;;;5081974;28;20248;-86
2024/01/25 09:58:42;;;;;;;5.13;1.47;;;;;;;;;;5082217;28;20202;-87
2024/01/25 10:01:12;;;;;;;1.60;1.30;;;;;;;;;;5073349;28;20202;-87
2024/01/25 10:03:41;;;;;;;1.53;1.23;;;;;;;;;;5072720;28;20209;-87
2024/01/25 10:06:11;;;;;;;1.93;1.83;;;;;;;;;;5072306;28;20202;-87
2024/01/25 10:08:41;;;;;;;7.60;2.83;;;;;;;;;;5071919;28;20231;-87
2024/01/25 10:11:11;;;;;;;1.10;1.00;;;;;;;;;;5072590;28;20203;-85
2024/01/25 10:13:41;;;;;;;2.20;1.00;;;;;;;;;;5072404;28;20293;-86
2024/01/25 10:16:12;;;;;;;1.43;1.00;;;;;;;;;;5072771;28;20209;-86
2024/01/25 10:18:42;;;;;;;3.60;1.27;;;;;;;;;;5072320;28;20187;-86
2024/01/25 10:21:14;;;;;;;0.80;0.80;;;;;;;;;;5072834;28;20202;-85
2024/01/25 10:23:45;;;;;;;0.83;0.83;;;;;;;;;;5071567;28;20239;-86
2024/01/25 10:26:14;;;;;;;4.20;1.37;;;;;;;;;;5072807;28;20675;-87
2024/01/25 10:28:41;;;;;;;1.33;1.07;;;;;;;;;;5072576;28;20283;-88
2024/01/25 10:31:15;;;;;;;0.97;0.97;;;;;;;;;;5071881;28;20563;-86
2024/01/25 10:33:44;;;;;;;4.63;1.53;;;;;;;;;;5072311;28;20221;-86
2024/01/25 10:36:13;;;;;;;1.03;0.90;;;;;;;;;;5072021;28;20194;-88
2024/01/25 10:38:42;;;;;;;1.53;1.20;;;;;;;;;;5072341;28;20218;-86
2024/01/25 10:41:15;;;;;;;1.63;1.53;;;;;;;;;;5072648;28;20261;-85
2024/01/25 10:43:46;;;;;;;1.83;0.87;;;;;;;;;;5072479;28;20187;-87
2024/01/25 10:46:14;;;;;;;2.47;1.80;;;;;;;;;;5073318;28;20199;-87
2024/01/25 10:48:43;;;;;;;1.43;1.33;;;;;;;;;;5073235;28;20748;-86
2024/01/25 10:51:18;;;;;;;2.20;1.33;;;;;;;;;;5072205;28;20263;-86
2024/01/25 10:53:50;;;;;;;2.07;1.37;;;;;;;;;;5072286;28;20257;-87
2024/01/25 10:56:23;;;;;;;6.13;3.57;;;;;;;;;;5072701;28;20287;-86
2024/01/25 10:58:55;;;;;;;4.20;2.50;;;;;;;;;;5073235;28;20616;-86
2024/01/25 11:01:24;;;;;;;2.73;1.20;;;;;;;;;;5072382;28;20271;-86
2024/01/25 11:03:54;;;;;;;3.60;2.00;;;;;;;;;;5071165;28;21033;-87
2024/01/25 11:06:22;;;;;;;1.00;0.93;;;;;;;;;;5075716;28;20214;-86
2024/01/25 11:08:50;;;;;;;4.20;1.17;;;;;;;;;;5077104;28;20238;-87
2024/01/25 11:11:23;;;;;;;1.80;1.40;;;;;;;;;;5076192;28;20252;-87
2024/01/25 11:13:53;;;;;;;1.20;0.93;;;;;;;;;;5076499;28;20205;-87
2024/01/25 11:16:29;;;;;;;1.87;1.33;;;;;;;;;;5077151;28;20191;-87
2024/01/25 11:19:04;;;;;;;1.10;1.10;;;;;;;;;;5075723;28;20267;-87
2024/01/25 11:21:45;;;;;;;1.37;0.87;;;;;;;;;;5076442;28;20285;-86
2024/01/25 11:24:16;;;;;;;2.83;1.40;;;;;;;;;;5077029;28;20206;-86
2024/01/25 11:26:49;;;;;;;1.00;1.00;;;;;;;;;;5083546;28;20271;-86
2024/01/25 11:29:27;;;;;;;1.03;1.03;;;;;;;;;;5085078;28;20226;-86
2024/01/25 11:31:56;;;;;;;3.23;1.47;;;;;;;;;;5077683;28;20277;-87
2024/01/25 11:34:24;;;;;;;2.57;1.33;;;;;;;;;;5075262;28;20360;-87
2024/01/25 11:36:52;;;;;;;1.30;1.30;;;;;;;;;;5072774;28;20216;-86
2024/01/25 11:39:21;;;;;;;1.47;1.40;;;;;;;;;;5076454;28;20537;-86
2024/01/25 11:41:53;;;;;;;2.17;1.10;;;;;;;;;;5079856;28;20203;-87
2024/01/25 11:44:23;;;;;;;2.60;0.80;;;;;;;;;;5088973;28;20697;-86
2024/01/25 11:46:51;;;;;;;5.87;1.27;;;;;;;;;;5077755;28;20213;-86
2024/01/25 11:49:19;;;;;;;7.73;1.03;;;;;;;;;;5081195;28;20226;-86
2024/01/25 11:51:48;;;;;;;4.87;0.97;;;;;;;;;;5095502;28;20217;-86
2024/01/25 11:54:16;;;;;;;2.93;1.07;;;;;;;;;;5097682;28;20210;-87
2024/01/25 11:56:45;;;;;;;3.37;1.50;;;;;;;;;;5094629;28;20227;-86
2024/01/25 11:59:15;;;;;;;4.33;1.40;;;;;;;;;;5097572;28;20179;-86
2024/01/25 12:01:42;;;;;;;1.70;1.60;;;;;;;;;;5095078;28;20203;-86
2024/01/25 12:04:11;;;;;;;3.70;1.13;;;;;;;;;;5094961;28;20197;-87
2024/01/25 12:06:44;;;;;;;5.57;1.70;;;;;;;;;;5094646;28;20191;-85
2024/01/25 12:09:13;;;;;;;2.30;1.27;;;;;;;;;;5093363;28;20230;-86
2024/01/25 12:11:42;;;;;;;3.23;1.00;;;;;;;;;;5077567;28;20198;-86
2024/01/25 12:14:11;;;;;;;1.30;1.10;;;;;;;;;;5075711;28;20592;-86
2024/01/25 12:16:41;;;;;;;1.63;1.20;;;;;;;;;;5074998;28;20202;-86
2024/01/25 12:19:10;;;;;;;3.00;1.07;;;;;;;;;;5074383;28;20251;-86
2024/01/25 12:21:40;;;;;;;1.23;1.10;;;;;;;;;;5074351;28;20630;-86
2024/01/25 12:24:16;;;;;;;1.10;0.70;;;;;;;;;;5073939;28;20210;-85
2024/01/25 12:26:48;;;;;;;1.67;0.90;;;;;;;;;;5074464;28;20194;-86
2024/01/25 12:29:17;;;;;;;1.30;1.17;;;;;;;;;;5074043;28;20234;-86
2024/01/25 12:31:48;;;;;;;1.77;1.50;;;;;;;;;;5074456;28;20298;-87
2024/01/25 12:34:16;;;;;;;7.07;0.60;;;;;;;;;;5075856;28;20198;-86
2024/01/25 12:36:46;;;;;;;11.87;0.90;;;;;;;;;;5074345;28;20626;-86
2024/01/25 12:39:15;;;;;;;1.40;1.30;;;;;;;;;;5074890;28;20226;-87
2024/01/25 12:41:43;;;;;;;1.47;1.27;;;;;;;;;;5074563;28;20195;-86
2024/01/25 12:44:14;;;;;;;0.77;0.77;;;;;;;;;;5074437;28;20202;-86
2024/01/25 12:46:44;;;;;;;1.27;1.17;;;;;;;;;;5074152;28;20757;-87
2024/01/25 12:49:14;;;;;;;7.53;1.63;;;;;;;;;;5073991;28;20210;-86
2024/01/25 12:51:42;;;;;;;4.73;2.07;;;;;;;;;;5074640;28;20204;-86
2024/01/25 12:54:13;;;;;;;3.40;1.83;;;;;;;;;;5074363;28;20214;-87
2024/01/25 12:56:41;;;;;;;3.87;2.93;;;;;;;;;;5072317;28;20624;-86
2024/01/25 12:59:10;;;;;;;2.10;1.87;;;;;;;;;;5074758;28;20218;-87
2024/01/25 13:01:37;;;;;;;1.70;1.40;;;;;;;;;;5078604;28;20664;-87
2024/01/25 13:04:06;;;;;;;1.00;1.00;;;;;;;;;;5077550;28;20664;-87
2024/01/25 13:06:36;;;;;;;1.57;1.23;;;;;;;;;;5075308;28;20199;-86
2024/01/25 13:09:05;;;;;;;2.03;0.93;;;;;;;;;;5074781;28;20231;-87
2024/01/25 13:11:33;;;;;;;3.57;1.80;;;;;;;;;;5075370;28;20206;-86
2024/01/25 13:14:02;;;;;;;1.70;0.90;;;;;;;;;;5074997;28;20198;-87
2024/01/25 13:16:30;;;;;;;2.03;1.03;;;;;;;;;;5074538;28;20205;-87
2024/01/25 13:19:00;;;;;;;4.37;1.27;;;;;;;;;;5077884;28;20210;-87
2024/01/25 13:21:27;;;;;;;1.50;1.40;;;;;;;;;;5094400;28;20228;-86
2024/01/25 13:23:57;;;;;;;1.87;1.27;;;;;;;;;;5093878;28;20225;-87
2024/01/25 13:26:24;;;;;;;0.87;0.70;;;;;;;;;;5094043;28;20697;-86
2024/01/25 13:28:53;;;;;;;0.60;0.60;;;;;;;;;;5093758;28;20685;-86
2024/01/25 13:31:23;;;;;;;2.17;1.27;;;;;;;;;;5094848;28;20614;-85
2024/01/25 13:33:52;;;;;;;1.30;1.20;;;;;;;;;;5099289;28;20190;-86
2024/01/25 13:36:19;;;;;;;2.50;1.00;;;;;;;;;;5110454;28;20205;-87
2024/01/25 13:38:48;;;;;;;1.47;1.17;;;;;;;;;;5093697;28;20222;-87
2024/01/25 13:41:17;;;;;;;2.17;0.93;;;;;;;;;;5093917;28;20271;-86
2024/01/25 13:43:44;;;;;;;2.80;1.30;;;;;;;;;;5094389;28;20170;-87
2024/01/25 13:46:12;;;;;;;1.77;1.40;;;;;;;;;;5094086;28;20209;-87
2024/01/25 13:48:39;;;;;;;0.87;0.87;;;;;;;;;;5093159;28;20294;-86
2024/01/25 13:51:07;;;;;;;1.33;1.30;;;;;;;;;;5093511;28;20220;-86
2024/01/25 13:53:35;;;;;;;1.17;1.00;;;;;;;;;;5091973;28;20517;-87
2024/01/25 13:56:03;;;;;;;2.33;1.10;;;;;;;;;;5093354;28;20209;-86
2024/01/25 13:58:31;;;;;;;2.33;1.07;;;;;;;;;;5093820;28;20198;-86
2024/01/25 14:00:59;;;;;;;2.20;0.77;;;;;;;;;;5093002;28;20194;-86
2024/01/25 14:03:26;;;;;;;5.87;1.53;;;;;;;;;;5093113;28;20669;-87
2024/01/25 14:05:57;;;;;;;1.03;0.87;;;;;;;;;;5093576;28;20273;-87
2024/01/25 14:08:24;;;;;;;1.10;1.00;;;;;;;;;;5093439;28;20232;-88
2024/01/25 14:10:51;;;;;;;3.23;2.00;;;;;;;;;;5093290;28;20236;-87
2024/01/25 14:13:19;;;;;;;9.60;1.17;;;;;;;;;;5108699;28;20194;-86
2024/01/25 14:15:48;;;;;;;0.80;0.80;;;;;;;;;;5105562;28;20192;-86
2024/01/25 14:18:16;;;;;;;8.07;1.67;;;;;;;;;;5095457;28;20343;-86
2024/01/25 14:20:44;;;;;;;1.90;1.63;;;;;;;;;;5094496;28;20256;-86
2024/01/25 14:23:11;;;;;;;1.30;1.20;;;;;;;;;;5095350;28;20225;-87
2024/01/25 14:25:38;;;;;;;4.90;2.80;;;;;;;;;;5093860;28;20194;-86
2024/01/25 14:28:06;;;;;;;3.27;1.80;;;;;;;;;;5093750;28;20546;-88
2024/01/25 14:30:34;;;;;;;3.30;1.83;;;;;;;;;;5094416;28;20682;-86
2024/01/25 14:33:05;;;;;;;6.87;2.67;;;;;;;;;;5092879;28;20201;-87
2024/01/25 14:35:32;;;;;;;6.23;2.23;;;;;;;;;;5093680;28;20339;-87
2024/01/25 14:38:00;;;;;;;4.03;2.03;;;;;;;;;;5093272;28;20201;-85
2024/01/25 14:40:27;;;;;;;1.53;1.37;;;;;;;;;;5096499;28;20261;-86
2024/01/25 14:42:55;;;;;;;1.50;1.40;;;;;;;;;;5098082;28;20262;-86
2024/01/25 14:45:24;;;;;;;7.23;1.77;;;;;;;;;;5098353;28;20640;-88
2024/01/25 14:47:57;;;;;;;4.70;2.03;;;;;;;;;;5100807;28;20198;-86
2024/01/25 14:50:30;;;;;;;0.80;0.80;;;;;;;;;;5096763;28;20233;-86
2024/01/25 14:52:58;;;;;;;1.00;1.00;;;;;;;;;;5096459;28;20202;-87
2024/01/25 14:55:25;;;;;;;1.60;1.47;;;;;;;;;;5096916;28;20636;-86